createdAt,value
2022-09-07T00:00:42.606Z,0.00
2022-09-07T00:01:42.579Z,0.00
2022-09-07T00:02:42.601Z,0.00
2022-09-07T00:03:42.576Z,0.00
2022-09-07T00:04:42.572Z,0.00
2022-09-07T00:05:42.526Z,0.00
2022-09-07T00:06:42.506Z,0.00
2022-09-07T00:07:42.502Z,0.00
2022-09-07T00:08:42.493Z,0.00
2022-09-07T00:09:42.495Z,0.00
2022-09-07T00:10:42.466Z,0.00
2022-09-07T00:11:42.462Z,0.00
2022-09-07T00:12:42.446Z,0.00
2022-09-07T00:13:42.445Z,0.00
2022-09-07T00:14:42.410Z,0.00
2022-09-07T00:15:42.434Z,0.00
2022-09-07T00:16:42.439Z,0.00
2022-09-07T00:17:42.391Z,0.00
2022-09-07T00:18:45.737Z,0.00
2022-09-07T00:19:42.377Z,0.00
2022-09-07T00:20:42.347Z,0.00
2022-09-07T00:21:42.335Z,0.00
2022-09-07T00:22:42.324Z,0.00
2022-09-07T00:23:42.318Z,0.00
2022-09-07T00:24:42.335Z,0.00
2022-09-07T00:25:42.298Z,0.00
2022-09-07T00:26:42.291Z,0.00
2022-09-07T00:27:42.334Z,0.00
2022-09-07T00:28:42.283Z,0.00
2022-09-07T00:29:42.300Z,0.00
2022-09-07T00:30:42.243Z,0.00
2022-09-07T00:31:42.340Z,0.00
2022-09-07T00:32:42.229Z,0.00
2022-09-07T00:33:42.207Z,0.00
2022-09-07T00:34:42.200Z,0.00
2022-09-07T00:35:42.204Z,0.00
2022-09-07T00:36:42.234Z,0.00
2022-09-07T00:37:42.196Z,0.00
2022-09-07T00:38:42.173Z,0.00
2022-09-07T00:39:42.217Z,0.00
2022-09-07T00:40:42.155Z,0.00
2022-09-07T00:41:42.135Z,0.00
2022-09-07T00:42:42.105Z,0.00
2022-09-07T00:43:42.148Z,0.00
2022-09-07T00:44:42.087Z,0.00
2022-09-07T00:45:42.096Z,0.00
2022-09-07T00:46:42.107Z,0.00
2022-09-07T00:47:42.094Z,0.00
2022-09-07T00:48:42.044Z,0.00
2022-09-07T00:49:42.031Z,0.00
2022-09-07T00:50:42.031Z,0.00
2022-09-07T00:51:42.030Z,0.00
2022-09-07T00:52:42.005Z,0.00
2022-09-07T00:53:42.007Z,0.00
2022-09-07T00:54:41.999Z,0.00
2022-09-07T00:55:42.041Z,0.00
2022-09-07T00:56:41.966Z,0.00
2022-09-07T00:57:41.953Z,0.00
2022-09-07T00:58:41.944Z,0.00
2022-09-07T00:59:41.919Z,0.00
2022-09-07T01:00:41.905Z,0.00
2022-09-07T01:01:42.000Z,0.00
2022-09-07T01:02:42.022Z,0.00
2022-09-07T01:03:41.872Z,0.00
2022-09-07T01:04:41.861Z,0.00
2022-09-07T01:05:41.866Z,0.00
2022-09-07T01:06:41.844Z,0.00
2022-09-07T01:07:41.872Z,0.00
2022-09-07T01:08:41.830Z,0.00
2022-09-07T01:09:41.818Z,0.00
2022-09-07T01:10:41.803Z,0.00
2022-09-07T01:11:41.798Z,0.00
2022-09-07T01:12:41.780Z,0.00
2022-09-07T01:13:41.813Z,0.00
2022-09-07T01:14:41.760Z,0.00
2022-09-07T01:15:41.812Z,0.00
2022-09-07T01:16:41.726Z,0.00
2022-09-07T01:17:41.730Z,0.00
2022-09-07T01:18:41.756Z,0.00
2022-09-07T01:19:41.702Z,0.00
2022-09-07T01:20:41.697Z,0.00
2022-09-07T01:21:41.686Z,0.00
2022-09-07T01:22:41.666Z,0.00
2022-09-07T01:23:41.694Z,0.00
2022-09-07T01:24:41.681Z,0.00
2022-09-07T01:25:41.634Z,0.00
2022-09-07T01:26:41.630Z,0.00
2022-09-07T01:27:41.617Z,0.00
2022-09-07T01:28:41.604Z,0.00
2022-09-07T01:29:41.634Z,0.00
2022-09-07T01:30:41.609Z,0.00
2022-09-07T01:31:41.570Z,0.00
2022-09-07T01:32:41.560Z,0.00
2022-09-07T01:33:41.565Z,0.00
2022-09-07T01:34:41.541Z,0.00
2022-09-07T01:35:41.581Z,0.00
2022-09-07T01:36:41.529Z,0.00
2022-09-07T01:37:41.512Z,0.00
2022-09-07T01:38:41.493Z,0.00
2022-09-07T01:39:41.493Z,0.00
2022-09-07T01:40:41.480Z,0.00
2022-09-07T01:41:41.515Z,0.00
2022-09-07T01:42:41.471Z,0.00
2022-09-07T01:43:41.458Z,0.00
2022-09-07T01:44:41.431Z,0.00
2022-09-07T01:45:41.426Z,0.00
2022-09-07T01:46:41.474Z,0.00
2022-09-07T01:47:41.437Z,0.00
2022-09-07T01:48:41.397Z,0.00
2022-09-07T01:49:41.378Z,0.00
2022-09-07T01:50:41.373Z,0.00
2022-09-07T01:51:41.347Z,0.00
2022-09-07T01:52:41.370Z,0.00
2022-09-07T01:53:41.364Z,0.00
2022-09-07T01:54:41.323Z,0.00
2022-09-07T01:55:41.308Z,0.00
2022-09-07T01:56:41.314Z,0.00
2022-09-07T01:57:41.283Z,0.00
2022-09-07T01:58:41.303Z,0.00
2022-09-07T01:59:41.300Z,0.00
2022-09-07T02:00:41.272Z,0.00
2022-09-07T02:01:41.286Z,0.00
2022-09-07T02:02:41.273Z,0.00
2022-09-07T02:03:41.244Z,0.00
2022-09-07T02:04:41.240Z,0.00
2022-09-07T02:05:41.201Z,0.00
2022-09-07T02:06:41.184Z,0.00
2022-09-07T02:07:41.183Z,0.00
2022-09-07T02:08:41.163Z,0.00
2022-09-07T02:09:41.176Z,0.00
2022-09-07T02:10:41.161Z,0.00
2022-09-07T02:11:41.142Z,0.00
2022-09-07T02:12:41.113Z,0.00
2022-09-07T02:13:41.173Z,0.00
2022-09-07T02:14:41.138Z,0.00
2022-09-07T02:15:41.189Z,0.00
2022-09-07T02:16:41.524Z,0.00
2022-09-07T02:17:41.078Z,0.00
2022-09-07T02:18:41.059Z,0.00
2022-09-07T02:19:41.045Z,0.00
2022-09-07T02:20:41.046Z,0.00
2022-09-07T02:21:41.079Z,0.00
2022-09-07T02:22:41.013Z,0.00
2022-09-07T02:23:41.647Z,0.00
2022-09-07T02:24:41.002Z,0.00
2022-09-07T02:25:40.977Z,0.00
2022-09-07T02:26:41.018Z,0.00
2022-09-07T02:27:40.979Z,0.00
2022-09-07T02:28:40.948Z,0.00
2022-09-07T02:29:40.938Z,0.00
2022-09-07T02:30:40.977Z,0.00
2022-09-07T02:31:40.933Z,0.00
2022-09-07T02:32:40.963Z,0.00
2022-09-07T02:33:40.958Z,0.00
2022-09-07T02:34:40.891Z,0.00
2022-09-07T02:35:40.923Z,0.00
2022-09-07T02:36:40.886Z,0.00
2022-09-07T02:37:40.865Z,0.00
2022-09-07T02:38:40.867Z,0.00
2022-09-07T02:39:40.855Z,0.00
2022-09-07T02:40:40.828Z,0.00
2022-09-07T02:41:40.811Z,0.00
2022-09-07T02:42:40.795Z,0.00
2022-09-07T02:43:40.813Z,0.00
2022-09-07T02:44:40.774Z,0.00
2022-09-07T02:45:40.798Z,0.00
2022-09-07T02:46:40.829Z,0.00
2022-09-07T02:47:40.747Z,0.00
2022-09-07T02:48:40.764Z,0.00
2022-09-07T02:49:40.745Z,0.00
2022-09-07T02:50:40.739Z,0.00
2022-09-07T02:51:40.707Z,0.00
2022-09-07T02:52:40.687Z,0.00
2022-09-07T02:53:40.685Z,0.00
2022-09-07T02:54:40.691Z,0.00
2022-09-07T02:55:40.650Z,0.00
2022-09-07T02:56:40.645Z,0.00
2022-09-07T02:57:40.626Z,0.00
2022-09-07T02:58:40.689Z,0.00
2022-09-07T02:59:40.597Z,0.00
2022-09-07T03:00:40.619Z,0.00
2022-09-07T03:01:40.662Z,0.00
2022-09-07T03:02:40.614Z,0.00
2022-09-07T03:03:40.560Z,0.00
2022-09-07T03:04:40.549Z,0.00
2022-09-07T03:05:40.550Z,0.00
2022-09-07T03:06:40.535Z,0.00
2022-09-07T03:07:44.077Z,0.00
2022-09-07T03:08:40.516Z,0.00
2022-09-07T03:09:40.501Z,0.00
2022-09-07T03:10:40.547Z,0.00
2022-09-07T03:11:40.472Z,0.00
2022-09-07T03:12:40.478Z,0.00
2022-09-07T03:13:40.447Z,0.00
2022-09-07T03:14:40.449Z,0.00
2022-09-07T03:15:40.586Z,0.00
2022-09-07T03:16:40.446Z,0.00
2022-09-07T03:17:40.429Z,0.00
2022-09-07T03:18:40.408Z,0.00
2022-09-07T03:19:40.419Z,0.00
2022-09-07T03:20:40.374Z,0.00
2022-09-07T03:21:40.386Z,0.00
2022-09-07T03:22:40.384Z,0.00
2022-09-07T03:23:40.347Z,0.00
2022-09-07T03:24:40.346Z,0.00
2022-09-07T03:25:40.320Z,0.00
2022-09-07T03:26:40.311Z,0.00
2022-09-07T03:27:40.291Z,0.00
2022-09-07T03:28:40.296Z,0.00
2022-09-07T03:29:42.164Z,0.00
2022-09-07T03:30:40.349Z,0.00
2022-09-07T03:31:40.258Z,0.00
2022-09-07T03:32:40.251Z,0.00
2022-09-07T03:33:40.234Z,0.00
2022-09-07T03:34:40.224Z,0.00
2022-09-07T03:35:40.236Z,0.00
2022-09-07T03:36:40.228Z,0.00
2022-09-07T03:37:40.229Z,0.00
2022-09-07T03:38:40.230Z,0.00
2022-09-07T03:39:40.197Z,0.00
2022-09-07T03:40:40.162Z,0.00
2022-09-07T03:41:40.234Z,0.00
2022-09-07T03:42:40.152Z,0.00
2022-09-07T03:43:40.167Z,0.00
2022-09-07T03:44:40.129Z,0.00
2022-09-07T03:45:40.158Z,0.00
2022-09-07T03:46:40.118Z,0.00
2022-09-07T03:47:40.134Z,0.00
2022-09-07T03:48:40.090Z,0.00
2022-09-07T03:49:40.094Z,0.00
2022-09-07T03:50:40.056Z,0.00
2022-09-07T03:51:40.046Z,0.00
2022-09-07T03:52:40.068Z,0.00
2022-09-07T03:53:40.069Z,0.00
2022-09-07T03:54:40.014Z,0.00
2022-09-07T03:55:40.050Z,0.00
2022-09-07T03:56:40.049Z,0.00
2022-09-07T03:57:39.992Z,0.00
2022-09-07T03:58:39.979Z,0.00
2022-09-07T03:59:39.956Z,0.00
2022-09-07T04:00:39.986Z,0.00
2022-09-07T04:01:40.033Z,0.00
2022-09-07T04:02:40.797Z,0.00
2022-09-07T04:03:39.919Z,0.00
2022-09-07T04:04:40.008Z,0.00
2022-09-07T04:05:41.868Z,0.00
2022-09-07T04:06:40.133Z,0.00
2022-09-07T04:07:40.711Z,0.00
2022-09-07T04:08:39.854Z,0.00
2022-09-07T04:09:39.858Z,0.00
2022-09-07T04:10:39.885Z,0.00
2022-09-07T04:11:39.964Z,0.00
2022-09-07T04:12:39.905Z,0.00
2022-09-07T04:13:39.882Z,0.00
2022-09-07T04:14:39.811Z,0.00
2022-09-07T04:15:41.749Z,0.00
2022-09-07T04:16:40.172Z,0.00
2022-09-07T04:17:39.773Z,0.00
2022-09-07T04:18:41.263Z,0.00
2022-09-07T04:19:39.767Z,0.00
2022-09-07T04:20:40.565Z,0.00
2022-09-07T04:21:39.728Z,0.00
2022-09-07T04:22:39.727Z,0.00
2022-09-07T04:23:39.770Z,0.00
2022-09-07T04:24:40.237Z,0.00
2022-09-07T04:25:39.685Z,0.00
2022-09-07T04:26:40.174Z,0.00
2022-09-07T04:27:40.254Z,0.00
2022-09-07T04:28:39.629Z,0.00
2022-09-07T04:29:39.645Z,0.00
2022-09-07T04:30:40.437Z,0.00
2022-09-07T04:31:39.617Z,0.00
2022-09-07T04:32:41.566Z,0.00
2022-09-07T04:33:39.642Z,4.00
2022-09-07T04:34:41.588Z,4.00
2022-09-07T04:35:39.586Z,4.00
2022-09-07T04:36:40.331Z,0.00
2022-09-07T04:37:41.531Z,4.00
2022-09-07T04:38:39.690Z,4.00
2022-09-07T04:39:39.820Z,8.00
2022-09-07T04:40:40.340Z,4.00
2022-09-07T04:41:39.620Z,8.00
2022-09-07T04:42:40.330Z,12.00
2022-09-07T04:43:39.492Z,8.00
2022-09-07T04:44:41.433Z,12.00
2022-09-07T04:45:41.443Z,12.00
2022-09-07T04:46:41.446Z,12.00
2022-09-07T04:47:41.390Z,16.00
2022-09-07T04:48:40.257Z,20.00
2022-09-07T04:49:39.465Z,24.00
2022-09-07T04:50:39.412Z,24.00
2022-09-07T04:51:41.347Z,24.00
2022-09-07T04:52:39.421Z,32.00
2022-09-07T04:53:39.409Z,32.00
2022-09-07T04:54:41.319Z,36.00
2022-09-07T04:55:39.418Z,40.00
2022-09-07T04:56:41.320Z,44.00
2022-09-07T04:57:40.171Z,44.00
2022-09-07T04:58:41.269Z,48.00
2022-09-07T04:59:39.407Z,52.00
2022-09-07T05:00:39.379Z,56.00
2022-09-07T05:01:41.311Z,60.00
2022-09-07T05:02:41.335Z,60.00
2022-09-07T05:03:39.300Z,64.00
2022-09-07T05:04:39.237Z,72.00
2022-09-07T05:05:41.226Z,72.00
2022-09-07T05:06:39.298Z,80.00
2022-09-07T05:07:39.333Z,80.00
2022-09-07T05:08:39.436Z,84.00
2022-09-07T05:09:40.012Z,92.00
2022-09-07T05:10:40.012Z,100.00
2022-09-07T05:11:39.417Z,104.00
2022-09-07T05:12:41.112Z,112.00
2022-09-07T05:13:41.124Z,116.00
2022-09-07T05:14:39.127Z,120.00
2022-09-07T05:15:39.215Z,124.00
2022-09-07T05:16:41.126Z,128.00
2022-09-07T05:17:39.235Z,140.00
2022-09-07T05:18:39.105Z,148.00
2022-09-07T05:19:39.510Z,156.00
2022-09-07T05:20:39.135Z,164.00
2022-09-07T05:21:39.118Z,172.00
2022-09-07T05:22:39.058Z,184.00
2022-09-07T05:23:39.035Z,192.00
2022-09-07T05:24:39.091Z,196.00
2022-09-07T05:25:39.013Z,200.00
2022-09-07T05:26:39.007Z,204.00
2022-09-07T05:27:39.008Z,200.00
2022-09-07T05:28:38.979Z,196.00
2022-09-07T05:31:40.731Z,196.00
2022-09-07T05:32:38.957Z,196.00
2022-09-07T05:34:40.743Z,204.00
2022-09-07T05:35:38.956Z,212.00
2022-09-07T05:36:38.898Z,216.00
2022-09-07T05:37:38.879Z,224.00
2022-09-07T05:38:38.897Z,232.00
2022-09-07T05:39:38.921Z,240.00
2022-09-07T05:40:40.875Z,256.00
2022-09-07T05:41:40.828Z,264.00
2022-09-07T05:42:38.933Z,280.00
2022-09-07T05:44:44.118Z,320.00
2022-09-07T05:45:38.813Z,344.00
2022-09-07T05:46:40.747Z,372.00
2022-09-07T05:47:38.761Z,396.00
2022-09-07T05:48:38.946Z,412.00
2022-09-07T05:49:38.729Z,416.00
2022-09-07T05:50:38.773Z,424.00
2022-09-07T05:51:38.752Z,420.00
2022-09-07T05:52:38.717Z,416.00
2022-09-07T05:53:40.665Z,420.00
2022-09-07T05:54:38.679Z,432.00
2022-09-07T05:55:38.728Z,440.00
2022-09-07T05:56:38.777Z,460.00
2022-09-07T05:57:38.737Z,452.00
2022-09-07T05:58:38.716Z,456.00
2022-09-07T05:59:38.676Z,456.00
2022-09-07T06:00:40.575Z,472.00
2022-09-07T06:01:38.617Z,464.00
2022-09-07T06:02:39.884Z,452.00
2022-09-07T06:03:38.855Z,456.00
2022-09-07T06:04:38.638Z,484.00
2022-09-07T06:05:38.601Z,500.00
2022-09-07T06:06:38.566Z,516.00
2022-09-07T06:07:38.548Z,516.00
2022-09-07T06:08:38.563Z,592.00
2022-09-07T06:10:43.529Z,680.00
2022-09-07T06:11:39.292Z,708.00
2022-09-07T06:12:41.714Z,716.00
2022-09-07T06:13:38.633Z,728.00
2022-09-07T06:14:40.421Z,732.00
2022-09-07T06:15:38.479Z,752.00
2022-09-07T06:16:38.691Z,784.00
2022-09-07T06:17:38.449Z,848.00
2022-09-07T06:18:38.428Z,876.00
2022-09-07T06:19:38.432Z,912.00
2022-09-07T06:20:38.405Z,912.00
2022-09-07T06:21:38.498Z,904.00
2022-09-07T06:22:38.377Z,872.00
2022-09-07T06:23:38.433Z,820.00
2022-09-07T06:24:38.353Z,784.00
2022-09-07T06:25:38.360Z,784.00
2022-09-07T06:26:38.336Z,824.00
2022-09-07T06:27:38.414Z,832.00
2022-09-07T06:28:38.313Z,844.00
2022-09-07T06:29:38.356Z,908.00
2022-09-07T06:30:38.308Z,984.00
2022-09-07T06:33:38.247Z,892.00
2022-09-07T06:34:38.259Z,856.00
2022-09-07T06:35:38.240Z,880.00
2022-09-07T06:36:40.192Z,948.00
2022-09-07T06:37:38.190Z,1012.00
2022-09-07T06:38:38.197Z,1064.00
2022-09-07T06:39:40.250Z,1100.00
2022-09-07T06:40:38.189Z,1192.00
2022-09-07T06:42:39.178Z,1312.00
2022-09-07T06:43:39.992Z,1384.00
2022-09-07T06:44:38.129Z,1476.00
2022-09-07T06:45:40.142Z,1552.00
2022-09-07T06:47:39.101Z,1628.00
2022-09-07T06:48:42.489Z,1760.00
2022-09-07T06:49:39.130Z,1880.00
2022-09-07T06:50:38.163Z,2076.00
2022-09-07T06:51:38.093Z,2336.00
2022-09-07T06:53:40.584Z,2268.00
2022-09-07T06:55:39.158Z,2148.00
2022-09-07T06:56:37.998Z,2252.00
2022-09-07T06:57:38.133Z,2408.00
2022-09-07T06:58:42.145Z,2372.00
2022-09-07T06:59:37.974Z,2308.00
2022-09-07T07:00:38.304Z,2260.00
2022-09-07T07:01:37.986Z,2224.00
2022-09-07T07:02:37.963Z,2212.00
2022-09-07T07:03:38.009Z,2088.00
2022-09-07T07:04:41.371Z,1948.00
2022-09-07T07:05:37.916Z,1832.00
2022-09-07T07:06:39.850Z,1860.00
2022-09-07T07:07:37.871Z,1916.00
2022-09-07T07:08:38.116Z,1964.00
2022-09-07T07:09:39.834Z,1988.00
2022-09-07T07:10:39.788Z,2052.00
2022-09-07T07:11:37.911Z,1964.00
2022-09-07T07:13:12.550Z,1944.00
2022-09-07T07:14:10.810Z,1880.00
2022-09-07T07:15:10.938Z,1760.00
2022-09-07T07:16:10.822Z,1652.00
2022-09-07T07:17:10.758Z,1632.00
2022-09-07T07:18:21.010Z,1700.00
2022-09-07T07:19:11.957Z,1624.00
2022-09-07T07:20:10.732Z,1620.00
2022-09-07T07:21:12.683Z,1560.00
2022-09-07T07:23:12.493Z,1636.00
2022-09-07T07:24:12.662Z,1736.00
2022-09-07T07:25:11.471Z,1808.00
2022-09-07T07:26:10.683Z,1900.00
2022-09-07T07:27:12.615Z,2060.00
2022-09-07T07:29:14.696Z,2360.00
2022-09-07T07:30:12.486Z,2344.00
2022-09-07T07:31:13.200Z,2256.00
2022-09-07T07:32:12.557Z,2180.00
2022-09-07T07:33:10.712Z,2160.00
2022-09-07T07:34:10.685Z,2108.00
2022-09-07T07:35:10.607Z,1972.00
2022-09-07T07:36:11.387Z,1804.00
2022-09-07T07:37:11.036Z,1696.00
2022-09-07T07:42:11.588Z,1568.00
2022-09-07T07:43:11.964Z,1308.00
2022-09-07T07:44:10.472Z,1096.00
2022-09-07T07:46:11.622Z,960.00
2022-09-07T07:47:10.581Z,956.00
2022-09-07T07:48:10.671Z,960.00
2022-09-07T07:49:10.458Z,988.00
2022-09-07T07:51:12.276Z,1084.00
2022-09-07T07:54:11.505Z,1424.00
2022-09-07T07:56:12.196Z,1412.00
2022-09-07T07:57:10.404Z,1196.00
2022-09-07T07:58:10.316Z,1188.00
2022-09-07T07:59:15.660Z,1108.00
2022-09-07T08:00:10.298Z,996.00
2022-09-07T08:01:10.358Z,896.00
2022-09-07T08:02:10.361Z,884.00
2022-09-07T08:03:10.308Z,848.00
2022-09-07T08:04:10.356Z,892.00
2022-09-07T08:05:10.307Z,896.00
2022-09-07T08:06:10.416Z,888.00
2022-09-07T08:07:11.329Z,872.00
2022-09-07T08:08:10.426Z,852.00
2022-09-07T08:09:10.219Z,824.00
2022-09-07T08:10:10.372Z,796.00
2022-09-07T08:11:11.116Z,728.00
2022-09-07T08:12:10.308Z,672.00
2022-09-07T08:13:10.172Z,668.00
2022-09-07T08:14:10.168Z,692.00
2022-09-07T08:15:10.112Z,756.00
2022-09-07T08:16:10.328Z,836.00
2022-09-07T08:17:10.357Z,904.00
2022-09-07T08:18:10.421Z,924.00
2022-09-07T08:19:11.053Z,916.00
2022-09-07T08:20:10.261Z,888.00
2022-09-07T08:21:10.093Z,872.00
2022-09-07T08:22:10.895Z,896.00
2022-09-07T08:23:10.073Z,924.00
2022-09-07T08:24:10.033Z,956.00
2022-09-07T08:25:10.004Z,980.00
2022-09-07T08:26:10.063Z,1008.00
2022-09-07T08:27:10.009Z,1048.00
2022-09-07T08:28:09.996Z,1104.00
2022-09-07T08:29:10.810Z,1204.00
2022-09-07T08:30:11.428Z,1364.00
2022-09-07T08:31:10.032Z,1592.00
2022-09-07T08:32:09.958Z,1892.00
2022-09-07T08:33:09.938Z,2256.00
2022-09-07T08:34:09.928Z,2636.00
2022-09-07T08:35:09.981Z,3060.00
2022-09-07T08:36:09.927Z,3332.00
2022-09-07T08:37:09.900Z,3464.00
2022-09-07T08:38:09.960Z,3516.00
2022-09-07T08:39:09.847Z,3620.00
2022-09-07T08:40:10.841Z,3600.00
2022-09-07T08:41:09.860Z,3208.00
2022-09-07T08:42:09.838Z,3060.00
2022-09-07T08:43:11.259Z,3124.00
2022-09-07T08:44:09.818Z,3376.00
2022-09-07T08:45:09.852Z,3456.00
2022-09-07T08:46:10.792Z,3468.00
2022-09-07T08:47:11.242Z,3540.00
2022-09-07T08:48:10.573Z,3372.00
2022-09-07T08:49:11.275Z,3472.00
2022-09-07T08:50:11.206Z,3432.00
2022-09-07T08:51:10.577Z,3116.00
2022-09-07T08:52:10.546Z,3064.00
2022-09-07T08:53:10.492Z,2880.00
2022-09-07T08:54:09.792Z,2692.00
2022-09-07T08:55:09.678Z,2588.00
2022-09-07T08:56:09.682Z,2532.00
2022-09-07T08:57:24.983Z,2488.00
2022-09-07T08:58:26.768Z,2424.00
2022-09-07T08:59:12.115Z,2408.00
2022-09-07T09:00:10.409Z,2444.00
2022-09-07T09:04:18.784Z,3348.00
2022-09-07T09:05:18.847Z,3928.00
2022-09-07T09:06:10.687Z,4124.00
2022-09-07T09:07:09.769Z,4012.00
2022-09-07T09:08:09.537Z,3824.00
2022-09-07T09:09:09.539Z,4036.00
2022-09-07T09:10:09.662Z,3568.00
2022-09-07T09:11:09.610Z,3612.00
2022-09-07T09:12:10.966Z,3424.00
2022-09-07T09:13:10.435Z,3280.00
2022-09-07T09:14:09.492Z,2924.00
2022-09-07T09:15:10.384Z,2936.00
2022-09-07T09:16:09.620Z,2952.00
2022-09-07T09:17:09.473Z,3728.00
2022-09-07T09:18:11.238Z,2472.00
2022-09-07T09:19:10.911Z,2164.00
2022-09-07T09:20:09.635Z,2200.00
2022-09-07T09:21:10.856Z,2576.00
2022-09-07T09:22:09.647Z,2584.00
2022-09-07T09:23:09.397Z,2420.00
2022-09-07T09:24:10.863Z,1928.00
2022-09-07T09:25:09.371Z,1768.00
2022-09-07T09:26:09.652Z,1632.00
2022-09-07T09:27:09.352Z,1560.00
2022-09-07T09:28:09.365Z,1740.00
2022-09-07T09:29:09.455Z,1868.00
2022-09-07T09:30:09.300Z,1964.00
2022-09-07T09:31:09.523Z,2136.00
2022-09-07T09:32:09.346Z,2028.00
2022-09-07T09:33:10.718Z,2252.00
2022-09-07T09:34:09.609Z,2316.00
2022-09-07T09:35:10.706Z,2092.00
2022-09-07T09:36:09.619Z,1976.00
2022-09-07T09:37:09.380Z,1744.00
2022-09-07T09:38:09.244Z,1872.00
2022-09-07T09:39:09.221Z,2068.00
2022-09-07T09:40:09.556Z,2304.00
2022-09-07T09:41:09.191Z,2284.00
2022-09-07T09:42:09.739Z,2180.00
2022-09-07T09:43:09.272Z,2400.00
2022-09-07T09:44:09.147Z,2448.00
2022-09-07T09:45:09.431Z,2504.00
2022-09-07T09:46:13.294Z,2508.00
2022-09-07T09:48:10.138Z,2516.00
2022-09-07T09:49:09.706Z,2472.00
2022-09-07T09:50:10.390Z,2296.00
2022-09-07T09:53:11.539Z,1996.00
2022-09-07T09:54:09.133Z,2048.00
2022-09-07T09:55:33.314Z,2264.00
2022-09-07T09:56:10.085Z,2476.00
2022-09-07T09:57:09.245Z,2668.00
2022-09-07T10:00:16.542Z,3808.00
2022-09-07T10:01:26.927Z,3660.00
2022-09-07T10:04:13.338Z,2916.00
2022-09-07T10:05:10.424Z,2604.00
2022-09-07T10:06:09.401Z,3420.00
2022-09-07T10:07:09.866Z,3940.00
2022-09-07T10:08:08.953Z,4292.00
2022-09-07T10:09:09.856Z,4152.00
2022-09-07T10:10:08.916Z,4560.00
2022-09-07T10:11:10.309Z,4696.00
2022-09-07T10:12:09.106Z,4460.00
2022-09-07T10:13:08.927Z,3996.00
2022-09-07T10:14:11.176Z,4504.00
2022-09-07T10:15:09.600Z,5228.00
2022-09-07T10:16:08.854Z,5884.00
2022-09-07T10:17:08.783Z,6124.00
2022-09-07T10:18:10.222Z,5824.00
2022-09-07T10:19:08.931Z,4732.00
2022-09-07T10:20:10.201Z,4072.00
2022-09-07T10:21:08.771Z,3312.00
2022-09-07T10:22:10.176Z,3836.00
2022-09-07T10:23:08.803Z,4480.00
2022-09-07T10:24:08.695Z,4180.00
2022-09-07T10:25:08.737Z,3460.00
2022-09-07T10:26:08.684Z,4332.00
2022-09-07T10:27:10.329Z,4680.00
2022-09-07T10:28:08.755Z,4624.00
2022-09-07T10:29:10.090Z,3660.00
2022-09-07T10:30:10.114Z,3400.00
2022-09-07T10:31:13.942Z,2908.00
2022-09-07T10:32:11.083Z,2576.00
2022-09-07T10:33:08.607Z,2800.00
2022-09-07T10:35:10.407Z,3536.00
2022-09-07T10:36:08.772Z,4352.00
2022-09-07T10:37:08.804Z,4820.00
2022-09-07T10:38:08.573Z,5368.00
2022-09-07T10:39:08.534Z,5768.00
2022-09-07T10:40:08.815Z,6196.00
2022-09-07T10:41:09.296Z,6348.00
2022-09-07T10:42:08.723Z,6668.00
2022-09-07T10:43:24.773Z,7016.00
2022-09-07T10:44:09.791Z,6936.00
2022-09-07T10:45:09.947Z,6792.00
2022-09-07T10:46:08.532Z,6768.00
2022-09-07T10:47:09.928Z,6156.00
2022-09-07T10:48:08.435Z,5484.00
2022-09-07T10:49:08.453Z,5208.00
2022-09-07T10:50:24.667Z,4440.00
2022-09-07T10:51:14.001Z,4864.00
2022-09-07T10:52:09.868Z,4736.00
2022-09-07T10:53:29.823Z,4080.00
2022-09-07T10:55:10.179Z,4732.00
2022-09-07T10:56:08.551Z,6688.00
2022-09-07T10:57:09.292Z,6044.00
2022-09-07T10:58:08.376Z,6080.00
2022-09-07T10:59:08.442Z,5280.00
2022-09-07T11:00:10.381Z,5520.00
2022-09-07T11:01:08.385Z,5960.00
2022-09-07T11:02:08.359Z,6452.00
2022-09-07T11:04:09.519Z,5536.00
2022-09-07T11:05:08.364Z,4916.00
2022-09-07T11:06:08.241Z,4088.00
2022-09-07T11:07:12.393Z,3288.00
2022-09-07T11:08:09.304Z,2880.00
2022-09-07T11:09:16.663Z,2804.00
2022-09-07T11:10:10.651Z,2080.00
2022-09-07T11:11:08.195Z,1908.00
2022-09-07T11:12:08.237Z,1976.00
2022-09-07T11:13:08.518Z,2068.00
2022-09-07T11:14:13.581Z,2692.00
2022-09-07T11:15:09.400Z,3272.00
2022-09-07T11:16:08.368Z,3444.00
2022-09-07T11:17:08.397Z,3392.00
2022-09-07T11:18:08.133Z,3888.00
2022-09-07T11:20:09.238Z,4560.00
2022-09-07T11:21:08.074Z,5220.00
2022-09-07T11:22:08.115Z,6188.00
2022-09-07T11:23:08.872Z,6144.00
2022-09-07T11:24:08.041Z,5540.00
2022-09-07T11:26:09.209Z,4680.00
2022-09-07T11:27:08.006Z,4600.00
2022-09-07T11:28:07.992Z,5088.00
2022-09-07T11:30:10.418Z,4924.00
2022-09-07T11:31:08.079Z,5252.00
2022-09-07T11:32:08.410Z,4196.00
2022-09-07T11:33:07.948Z,3952.00
2022-09-07T11:35:10.370Z,4540.00
2022-09-07T11:36:12.011Z,4636.00
2022-09-07T11:37:08.243Z,4872.00
2022-09-07T11:38:08.312Z,4956.00
2022-09-07T11:39:07.867Z,4584.00
2022-09-07T11:40:08.071Z,4108.00
2022-09-07T11:41:07.851Z,4888.00
2022-09-07T11:43:19.033Z,6060.00
2022-09-07T11:44:07.815Z,6536.00
2022-09-07T11:45:07.818Z,6008.00
2022-09-07T11:46:07.834Z,5188.00
2022-09-07T11:47:07.778Z,4984.00
2022-09-07T11:48:07.783Z,4336.00
2022-09-07T11:49:08.567Z,3876.00
2022-09-07T11:50:07.753Z,4140.00
2022-09-07T11:51:07.779Z,5044.00
2022-09-07T11:52:07.768Z,6204.00
2022-09-07T11:53:07.839Z,5680.00
2022-09-07T11:54:07.740Z,6020.00
2022-09-07T11:55:07.744Z,5508.00
2022-09-07T11:56:07.690Z,5876.00
2022-09-07T11:57:07.692Z,6320.00
2022-09-07T11:58:07.657Z,6240.00
2022-09-07T11:59:07.718Z,7836.00
2022-09-07T12:00:07.665Z,7388.00
2022-09-07T12:01:07.658Z,6916.00
2022-09-07T12:02:07.705Z,6320.00
2022-09-07T12:03:07.666Z,5932.00
2022-09-07T12:04:12.117Z,5180.00
2022-09-07T12:05:10.144Z,4952.00
2022-09-07T12:06:07.600Z,5204.00
2022-09-07T12:07:07.877Z,5632.00
2022-09-07T12:08:07.570Z,5392.00
2022-09-07T12:09:07.791Z,5552.00
2022-09-07T12:10:07.543Z,5996.00
2022-09-07T12:11:07.534Z,6272.00
2022-09-07T12:12:07.512Z,6184.00
2022-09-07T12:13:07.524Z,7004.00
2022-09-07T12:14:07.646Z,7088.00
2022-09-07T12:15:07.486Z,7144.00
2022-09-07T12:16:07.539Z,8092.00
2022-09-07T12:17:07.455Z,8348.00
2022-09-07T12:18:07.454Z,7288.00
2022-09-07T12:19:07.424Z,7876.00
2022-09-07T12:20:07.434Z,8512.00
2022-09-07T12:21:07.529Z,8436.00
2022-09-07T12:22:07.438Z,7440.00
2022-09-07T12:23:07.388Z,5420.00
2022-09-07T12:24:07.383Z,3680.00
2022-09-07T12:25:07.439Z,3028.00
2022-09-07T12:26:07.402Z,3320.00
2022-09-07T12:27:07.349Z,3604.00
2022-09-07T12:28:07.374Z,3640.00
2022-09-07T12:29:07.384Z,3856.00
2022-09-07T12:30:07.312Z,4116.00
2022-09-07T12:31:07.492Z,4440.00
2022-09-07T12:32:53.655Z,5612.00
2022-09-07T12:33:08.357Z,16448.00
2022-09-07T12:34:07.259Z,3816.00
2022-09-07T12:35:07.250Z,3652.00
2022-09-07T12:36:07.248Z,3488.00
2022-09-07T12:37:12.154Z,3152.00
2022-09-07T12:38:08.312Z,3324.00
2022-09-07T12:39:07.660Z,4492.00
2022-09-07T12:40:07.298Z,5820.00
2022-09-07T12:41:07.180Z,6984.00
2022-09-07T12:43:10.044Z,4424.00
2022-09-07T12:44:07.208Z,3756.00
2022-09-07T12:45:07.156Z,4060.00
2022-09-07T12:46:07.173Z,6044.00
2022-09-07T12:47:07.117Z,26144.00
2022-09-07T12:48:07.107Z,10684.00
2022-09-07T12:49:07.113Z,38304.00
2022-09-07T12:50:07.107Z,36768.00
2022-09-07T12:51:07.084Z,33184.00
2022-09-07T12:52:15.365Z,8064.00
2022-09-07T12:53:09.042Z,30656.00
2022-09-07T12:54:07.085Z,26560.00
2022-09-07T12:55:28.374Z,12568.00
2022-09-07T12:56:15.965Z,33824.00
2022-09-07T12:58:08.482Z,33856.00
2022-09-07T12:59:10.401Z,31040.00
2022-09-07T13:00:07.993Z,23328.00
2022-09-07T13:01:08.024Z,35872.00
2022-09-07T13:02:07.881Z,41632.00
2022-09-07T13:03:49.102Z,41664.00
2022-09-07T13:04:08.164Z,35808.00
2022-09-07T13:05:07.849Z,32000.00
2022-09-07T13:06:06.972Z,31040.00
2022-09-07T13:07:07.900Z,34496.00
2022-09-07T13:08:09.395Z,28480.00
2022-09-07T13:09:06.998Z,35680.00
2022-09-07T13:10:06.952Z,41536.00
2022-09-07T13:11:06.916Z,44000.00
2022-09-07T13:12:07.572Z,43616.00
2022-09-07T13:13:06.852Z,54624.00
2022-09-07T13:14:09.414Z,49472.00
2022-09-07T13:15:06.893Z,45312.00
2022-09-07T13:16:06.899Z,45024.00
2022-09-07T13:17:22.325Z,49248.00
2022-09-07T13:18:08.774Z,53152.00